createdAt,value
2018-05-07T01:52:27.622Z,102086.11
2018-05-07T02:00:45.926Z,102091.27
2018-05-07T02:03:13.492Z,102082.54
2018-05-07T02:05:40.985Z,102081.59
2018-05-07T02:08:08.530Z,102077.17
2018-05-07T02:10:36.051Z,102071.50
2018-05-07T02:19:14.750Z,102067.23
2018-05-07T02:21:43.700Z,102068.88
2018-05-07T02:24:11.266Z,102065.77
2018-05-07T02:26:38.891Z,102055.34
2018-05-07T02:29:29.566Z,102051.86
2018-05-07T02:37:54.487Z,102046.00
2018-05-07T02:40:22.024Z,102048.11
2018-05-07T02:42:49.564Z,102045.03
2018-05-07T02:45:17.054Z,102040.69
2018-05-07T02:47:58.335Z,102044.60
2018-05-07T02:58:46.906Z,102042.84
2018-05-07T03:01:16.574Z,102040.27
2018-05-07T03:03:44.207Z,102040.77
2018-05-07T03:14:35.369Z,102033.15
2018-05-07T03:17:02.923Z,102030.59
2018-05-07T03:19:30.449Z,102028.00
2018-05-07T03:33:10.173Z,102025.02
2018-05-07T03:35:37.691Z,102020.27
2018-05-07T03:38:05.401Z,102021.72
2018-05-07T03:48:58.303Z,102021.73
2018-05-07T03:51:25.879Z,102023.45
2018-05-07T03:53:53.442Z,102023.47
2018-05-07T03:56:26.106Z,102025.19
2018-05-07T04:04:55.971Z,102027.48
2018-05-07T04:07:23.529Z,102021.37
2018-05-07T04:09:50.998Z,102024.42
2018-05-07T04:12:18.553Z,102031.46
2018-05-07T04:18:06.996Z,102036.38
2018-05-07T04:23:47.025Z,102030.25
2018-05-07T04:26:14.608Z,102038.69
2018-05-07T04:28:42.136Z,102041.50
2018-05-07T06:30:06.064Z,102050.36
2018-05-07T06:35:49.702Z,102055.49
2018-05-07T06:38:19.039Z,102052.69
2018-05-07T06:40:46.588Z,102048.93
2018-05-07T06:43:14.062Z,102049.17
2018-05-07T06:45:41.680Z,102051.64
2018-05-07T06:53:49.708Z,102051.30
2018-05-07T06:56:22.697Z,102055.03
2018-05-07T06:58:51.899Z,102053.71
2018-05-07T07:01:19.432Z,102058.92
2018-05-07T07:03:46.946Z,102061.38
2018-05-07T07:06:14.536Z,102064.23
2018-05-07T07:08:42.224Z,102050.98
2018-05-07T07:11:09.759Z,102055.73
2018-05-07T07:13:37.519Z,102056.00
2018-05-07T07:16:05.159Z,102062.84
2018-05-07T07:18:32.681Z,102063.94
2018-05-07T07:21:00.239Z,102048.84
2018-05-07T07:23:27.803Z,102042.91
2018-05-07T07:31:44.424Z,102044.63
2018-05-07T07:34:11.918Z,102042.88
2018-05-07T07:36:39.565Z,102039.77
2018-05-07T07:39:07.118Z,102030.89
2018-05-07T07:41:34.598Z,102034.98
2018-05-07T07:46:37.648Z,102031.08
2018-05-07T07:49:06.471Z,102033.48
2018-05-07T07:51:39.831Z,102035.31
2018-05-07T07:54:07.371Z,102046.11
2018-05-07T07:56:34.946Z,102037.59
2018-05-07T07:59:02.462Z,102037.31
2018-05-07T08:01:45.403Z,102041.34
2018-05-07T08:04:13.172Z,102039.94
2018-05-07T08:06:42.119Z,102030.28
2018-05-07T08:09:09.629Z,102034.80
2018-05-07T08:11:37.218Z,102028.12
2018-05-07T08:14:04.799Z,102027.28
2018-05-07T08:16:32.725Z,102022.99
2018-05-07T08:19:00.476Z,102021.80
2018-05-07T08:21:28.053Z,102014.90
2018-05-07T08:23:55.660Z,102010.99
2018-05-07T08:26:23.256Z,102013.14
2018-05-07T08:28:50.738Z,102001.23
2018-05-07T08:31:18.330Z,101996.54
2018-05-07T08:33:47.900Z,101994.09
2018-05-07T08:44:26.532Z,101996.33
2018-05-07T08:46:56.126Z,101997.52
2018-05-07T08:49:23.791Z,102001.18
2018-05-07T09:02:19.530Z,101992.56
2018-05-07T09:04:47.336Z,101982.97
2018-05-07T09:07:14.967Z,101988.37
2018-05-07T09:18:32.111Z,101999.52
2018-05-07T09:20:59.987Z,101997.84
2018-05-07T09:23:27.615Z,101994.73
2018-05-07T09:34:47.073Z,101985.11
2018-05-07T09:37:14.666Z,101982.53
2018-05-07T09:39:42.300Z,101982.96
2018-05-07T09:42:09.880Z,101976.41
2018-05-07T09:54:16.445Z,101969.70
2018-05-07T09:56:55.001Z,101965.28
2018-05-07T09:59:22.789Z,101968.87
2018-05-07T10:09:58.517Z,101972.39
2018-05-07T10:12:26.130Z,101970.98
2018-05-07T10:14:53.665Z,101965.75
2018-05-07T10:17:21.969Z,101967.47
2018-05-07T10:29:20.016Z,101962.62
2018-05-07T10:31:47.658Z,101955.76
2018-05-07T10:34:15.297Z,101959.95
2018-05-07T10:45:12.404Z,101952.56
2018-05-07T10:47:39.980Z,101957.84
2018-05-07T10:50:07.708Z,101957.92
2018-05-07T10:52:39.104Z,101954.11
2018-05-07T10:55:18.717Z,101954.50
2018-05-07T11:00:35.789Z,101944.17
2018-05-07T11:03:03.452Z,101947.63
2018-05-07T11:05:31.013Z,101945.67
2018-05-07T11:07:58.680Z,101937.33
2018-05-07T11:18:25.607Z,101916.86
2018-05-07T11:20:53.177Z,101915.13
2018-05-07T11:23:20.741Z,101912.34
2018-05-07T11:25:48.399Z,101911.65
2018-05-07T11:36:09.470Z,101912.81
2018-05-07T11:38:37.045Z,101909.80
2018-05-07T11:41:04.655Z,101910.49
2018-05-07T11:43:32.355Z,101909.45
2018-05-07T11:54:19.759Z,101898.18
2018-05-07T11:56:47.338Z,101887.42
2018-05-07T11:59:15.039Z,101887.50
2018-05-07T12:01:50.060Z,101892.00
2018-05-07T12:04:31.172Z,101887.91
2018-05-07T12:07:24.390Z,101886.94
2018-05-07T12:09:52.005Z,101879.29
2018-05-07T12:12:19.540Z,101877.78
2018-05-07T12:14:47.083Z,101873.04
2018-05-07T12:17:14.594Z,101866.43
2018-05-07T12:19:55.908Z,101869.45
2018-05-07T12:22:23.590Z,101864.77
2018-05-07T12:24:51.319Z,101864.51
2018-05-07T12:27:19.118Z,101862.72
2018-05-07T12:29:46.710Z,101855.36
2018-05-07T12:32:14.253Z,101847.69
2018-05-07T12:34:41.789Z,101845.30
2018-05-07T12:37:10.503Z,101839.65
2018-05-07T12:39:38.167Z,101836.66
2018-05-07T12:42:05.764Z,101840.13
2018-05-07T12:44:33.385Z,101835.03
2018-05-07T12:47:00.927Z,101831.39
2018-05-07T12:49:28.448Z,101830.34
2018-05-07T12:51:56.047Z,101831.11
2018-05-07T12:54:23.660Z,101835.22
2018-05-07T12:56:51.509Z,101839.70
2018-05-07T12:59:19.069Z,101836.14
2018-05-07T13:01:46.917Z,101830.59
2018-05-07T13:04:14.487Z,101827.97
2018-05-07T13:06:42.047Z,101829.99
2018-05-07T13:09:09.707Z,101829.06
2018-05-07T13:11:38.019Z,101830.23
2018-05-07T13:14:08.008Z,101822.85
2018-05-07T13:16:35.693Z,101814.94
2018-05-07T13:19:03.411Z,101808.41
2018-05-07T13:21:30.968Z,101806.08
2018-05-07T13:23:58.567Z,101806.82
2018-05-07T13:26:26.255Z,101804.40
2018-05-07T13:28:53.999Z,101805.44
2018-05-07T13:31:21.898Z,101794.80
2018-05-07T13:33:50.755Z,101789.36
2018-05-07T13:36:19.445Z,101788.30
2018-05-07T13:38:47.175Z,101793.63
2018-05-07T13:41:14.732Z,101793.05
2018-05-07T13:43:42.390Z,101790.16
2018-05-07T13:46:10.905Z,101792.11
2018-05-07T13:48:39.567Z,101790.21
2018-05-07T13:51:08.330Z,101787.17
2018-05-07T13:53:40.732Z,101779.25
2018-05-07T13:56:08.369Z,101769.58
2018-05-07T13:58:35.926Z,101772.23
2018-05-07T14:01:03.494Z,101767.89
2018-05-07T14:03:31.579Z,101765.87
2018-05-07T14:12:06.296Z,101759.28
2018-05-07T14:14:33.897Z,101757.97
2018-05-07T14:17:01.430Z,101749.16
2018-05-07T14:19:29.524Z,101742.48
2018-05-07T14:21:58.664Z,101744.14
2018-05-07T14:24:27.329Z,101743.16
2018-05-07T14:27:05.170Z,101734.55
2018-05-07T14:29:32.770Z,101737.74
2018-05-07T14:32:00.363Z,101738.94
2018-05-07T14:34:27.947Z,101730.97
2018-05-07T14:36:55.574Z,101730.14
2018-05-07T14:39:23.125Z,101730.12
2018-05-07T14:41:51.217Z,101726.36
2018-05-07T14:44:19.585Z,101727.34
2018-05-07T14:46:48.187Z,101731.15
2018-05-07T14:49:15.751Z,101731.99
2018-05-07T14:51:43.457Z,101731.95
2018-05-07T14:54:11.208Z,101732.09
2018-05-07T14:59:12.752Z,101736.27
2018-05-07T15:01:43.853Z,101729.52
2018-05-07T15:04:11.435Z,101738.25
2018-05-07T15:06:46.739Z,101735.89
2018-05-07T15:09:14.303Z,101734.01
2018-05-07T15:11:42.828Z,101729.78
2018-05-07T15:14:22.780Z,101730.33
2018-05-07T15:16:51.480Z,101732.07
2018-05-07T15:19:22.641Z,101739.71
2018-05-07T15:21:50.282Z,101737.55
2018-05-07T15:24:17.819Z,101730.88
2018-05-07T15:26:45.387Z,101737.20
2018-05-07T15:29:14.222Z,101734.76
2018-05-07T15:31:46.688Z,101736.31
2018-05-07T15:34:15.301Z,101728.31
2018-05-07T15:36:43.906Z,101739.63
2018-05-07T15:39:11.439Z,101731.28
2018-05-07T15:41:38.966Z,101740.56
2018-05-07T15:44:06.573Z,101742.85
2018-05-07T15:46:37.960Z,101739.78
2018-05-07T15:49:06.122Z,101738.73
2018-05-07T15:51:38.500Z,101742.11
2018-05-07T15:54:07.210Z,101734.36
2018-05-07T15:56:34.863Z,101732.70
2018-05-07T15:59:02.368Z,101734.64
2018-05-07T16:01:30.024Z,101737.94
2018-05-07T16:06:31.840Z,101727.30
2018-05-07T16:09:02.065Z,101728.63
2018-05-07T16:11:29.623Z,101731.47
2018-05-07T16:13:58.919Z,101728.72
2018-05-07T16:16:26.478Z,101725.25
2018-05-07T16:18:54.302Z,101733.25
2018-05-07T16:21:23.056Z,101727.35
2018-05-07T16:23:54.098Z,101731.11
2018-05-07T16:26:23.828Z,101727.37
2018-05-07T16:28:51.430Z,101719.48
2018-05-07T16:31:19.147Z,101722.37
2018-05-07T16:33:46.754Z,101728.73
2018-05-07T16:36:14.336Z,101728.87
2018-05-07T16:38:42.278Z,101729.75
2018-05-07T16:41:13.558Z,101722.64
2018-05-07T16:43:43.722Z,101720.08
2018-05-07T16:46:11.258Z,101713.59
2018-05-07T16:48:38.906Z,101717.99
2018-05-07T16:51:06.460Z,101715.39
2018-05-07T16:53:34.042Z,101717.58
2018-05-07T16:58:38.403Z,101709.34
2018-05-07T17:01:06.972Z,101698.32
2018-05-07T17:03:34.580Z,101697.09
2018-05-07T17:06:02.138Z,101695.84
2018-05-07T17:08:30.645Z,101700.01
2018-05-07T17:10:58.304Z,101701.20
2018-05-07T17:13:29.601Z,101695.56
2018-05-07T17:16:00.076Z,101695.59
2018-05-07T17:18:30.897Z,101692.48
2018-05-07T17:20:58.462Z,101689.34
2018-05-07T17:23:26.022Z,101688.96
2018-05-07T17:25:53.688Z,101683.47
2018-05-07T17:28:22.320Z,101675.20
2018-05-07T17:30:53.519Z,101677.16
2018-05-07T17:33:22.249Z,101672.52
2018-05-07T17:35:52.619Z,101673.86
2018-05-07T17:38:20.901Z,101676.20
2018-05-07T17:40:49.396Z,101669.78
2018-05-07T17:43:16.947Z,101665.98
2018-05-07T17:45:58.331Z,101664.00
2018-05-07T17:48:39.099Z,101662.95
2018-05-07T17:51:09.834Z,101671.42
2018-05-07T17:53:42.727Z,101676.20
2018-05-07T17:56:10.286Z,101668.66
2018-05-07T17:58:37.890Z,101673.63
2018-05-07T18:01:05.469Z,101663.61
2018-05-07T18:03:34.157Z,101672.17
2018-05-07T18:06:02.920Z,101671.36
2018-05-07T18:08:31.623Z,101668.73
2018-05-07T18:10:59.723Z,101676.72
2018-05-07T18:13:27.276Z,101671.08
2018-05-07T18:15:55.143Z,101664.91
2018-05-07T18:18:22.842Z,101668.94
2018-05-07T18:20:52.011Z,101669.30
2018-05-07T18:23:23.569Z,101677.31
2018-05-07T18:25:54.609Z,101678.38
2018-05-07T18:28:23.471Z,101672.25
2018-05-07T18:30:51.119Z,101669.74
2018-05-07T18:33:18.687Z,101683.70
2018-05-07T18:38:34.523Z,101678.30
2018-05-07T18:41:03.110Z,101673.46
2018-05-07T18:43:34.195Z,101674.23
2018-05-07T18:46:03.160Z,101675.54
2018-05-07T18:48:30.799Z,101674.75
2018-05-07T18:50:58.466Z,101680.14
2018-05-07T18:53:26.294Z,101679.17
2018-05-07T18:55:57.588Z,101677.20
2018-05-07T18:58:26.706Z,101688.84
2018-05-07T19:00:55.492Z,101694.09
2018-05-07T19:03:26.810Z,101697.67
2018-05-07T19:05:54.453Z,101692.20
2018-05-07T19:08:21.980Z,101694.02
2018-05-07T19:10:49.634Z,101691.49
2018-05-07T19:13:19.591Z,101695.52
2018-05-07T19:15:47.983Z,101689.50
2018-05-07T19:18:15.892Z,101691.67
2018-05-07T19:20:43.518Z,101685.74
2018-05-07T19:23:11.146Z,101692.91
2018-05-07T19:25:38.824Z,101690.52
2018-05-07T19:28:06.478Z,101685.61
2018-05-07T19:30:35.535Z,101685.77
2018-05-07T19:33:03.878Z,101680.45
2018-05-07T19:35:32.600Z,101676.55
2018-05-07T19:38:00.833Z,101679.77
2018-05-07T19:40:28.394Z,101680.41
2018-05-07T19:42:55.896Z,101682.48
2018-05-07T19:45:23.517Z,101676.02
2018-05-07T19:47:52.012Z,101677.13
2018-05-07T19:50:19.756Z,101681.28
2018-05-07T19:52:48.155Z,101682.45
2018-05-07T19:55:16.797Z,101678.66
2018-05-07T19:57:44.333Z,101683.46
2018-05-07T20:00:11.899Z,101682.58
2018-05-07T20:02:39.655Z,101685.20
2018-05-07T20:05:07.655Z,101686.05
2018-05-07T20:07:36.315Z,101684.77
2018-05-07T20:10:06.088Z,101685.11
2018-05-07T20:12:33.626Z,101685.85
2018-05-07T20:15:01.150Z,101689.05
2018-05-07T20:17:28.770Z,101692.99
2018-05-07T20:19:56.416Z,101692.14
2018-05-07T20:24:59.133Z,101684.83
2018-05-07T20:27:27.853Z,101692.67
2018-05-07T20:29:55.419Z,101683.52
2018-05-07T20:32:23.058Z,101679.14
2018-05-07T20:34:50.571Z,101675.27
2018-05-07T20:37:18.336Z,101684.92
2018-05-07T20:39:47.552Z,101686.36
2018-05-07T20:42:16.055Z,101672.48
2018-05-07T20:44:44.582Z,101678.27
2018-05-07T20:47:12.889Z,101676.91
2018-05-07T20:49:40.423Z,101672.98
2018-05-07T20:52:07.983Z,101674.72
2018-05-07T20:54:35.593Z,101670.83
2018-05-07T20:57:03.459Z,101670.45
2018-05-07T20:59:31.349Z,101667.97
2018-05-07T21:01:59.600Z,101670.08
2018-05-07T21:04:27.155Z,101665.36
2018-05-07T21:06:54.660Z,101671.28
2018-05-07T21:09:22.277Z,101671.28
2018-05-07T21:11:50.031Z,101671.23
2018-05-07T21:14:18.218Z,101671.59
2018-05-07T21:16:46.824Z,101668.02
2018-05-07T21:19:15.572Z,101669.73
2018-05-07T21:21:43.128Z,101668.77
2018-05-07T21:24:10.655Z,101660.40
2018-05-07T21:26:38.176Z,101660.48
2018-05-07T21:29:05.716Z,101655.23
2018-05-07T21:31:35.198Z,101656.96
2018-05-07T21:34:03.679Z,101659.52
2018-05-07T21:36:33.903Z,101657.23
2018-05-07T21:39:01.483Z,101659.39
2018-05-07T21:41:29.032Z,101662.09
2018-05-07T21:43:56.587Z,101657.78
2018-05-07T21:46:24.248Z,101654.27
2018-05-07T21:48:51.835Z,101657.89
2018-05-07T21:51:19.415Z,101651.16
2018-05-07T21:53:48.055Z,101637.72
2018-05-07T21:56:15.590Z,101641.53
2018-05-07T21:58:43.131Z,101638.81
2018-05-07T22:01:10.633Z,101632.63
2018-05-07T22:03:38.279Z,101638.52
2018-05-07T22:06:06.987Z,101631.13
2018-05-07T22:08:34.741Z,101626.30
2018-05-07T22:11:02.648Z,101631.05
2018-05-07T22:13:30.267Z,101626.15
2018-05-07T22:15:57.914Z,101621.84
2018-05-07T22:18:25.847Z,101624.99
2018-05-07T22:20:53.767Z,101623.47
2018-05-07T22:23:22.461Z,101622.71
2018-05-07T22:25:50.985Z,101633.39
2018-05-07T22:28:19.716Z,101618.52
2018-05-07T22:30:47.243Z,101623.27
2018-05-07T22:33:14.872Z,101617.48
2018-05-07T22:35:42.432Z,101617.46
2018-05-07T22:38:10.194Z,101613.06
2018-05-07T22:40:38.828Z,101613.06
2018-05-07T22:43:09.526Z,101608.36
2018-05-07T22:45:38.110Z,101612.70
2018-05-07T22:48:05.705Z,101611.83
2018-05-07T22:50:33.259Z,101606.09
2018-05-07T22:53:00.831Z,101609.19
2018-05-07T22:55:28.583Z,101605.73
2018-05-07T22:57:56.156Z,101613.61
2018-05-07T23:00:24.020Z,101607.95
2018-05-07T23:02:51.591Z,101604.97
2018-05-07T23:05:19.148Z,101607.14
2018-05-07T23:07:46.695Z,101603.66
2018-05-07T23:10:14.351Z,101600.17
2018-05-07T23:12:41.922Z,101596.28
2018-05-07T23:15:10.624Z,101595.83
2018-05-07T23:17:39.110Z,101591.40
2018-05-07T23:20:07.291Z,101589.21
2018-05-07T23:22:34.880Z,101591.40
2018-05-07T23:25:02.588Z,101591.95
2018-05-07T23:27:30.160Z,101586.86
2018-05-07T23:29:57.939Z,101578.69
2018-05-07T23:32:26.175Z,101576.56
2018-05-07T23:34:54.916Z,101578.32
2018-05-07T23:37:23.310Z,101573.09
2018-05-07T23:39:50.928Z,101570.08
2018-05-07T23:42:18.538Z,101571.96
2018-05-07T23:44:46.122Z,101573.42
2018-05-07T23:47:13.866Z,101565.16
2018-05-07T23:49:44.052Z,101564.45
2018-05-07T23:52:11.869Z,101560.74
2018-05-07T23:54:39.539Z,101565.36
2018-05-07T23:57:07.160Z,101566.30
2018-05-07T23:59:34.822Z,101566.72
